createdAt,value
2022-11-19T00:01:34.190Z,22.00
2022-11-19T00:04:01.966Z,22.00
2022-11-19T00:06:31.094Z,22.00
2022-11-19T00:08:58.821Z,22.00
2022-11-19T00:11:46.280Z,22.00
2022-11-19T00:14:15.609Z,22.00
2022-11-19T00:16:45.292Z,22.00
2022-11-19T00:19:13.232Z,22.00
2022-11-19T00:21:42.304Z,22.00
2022-11-19T00:24:10.339Z,22.00
2022-11-19T00:26:38.063Z,22.00
2022-11-19T00:29:05.785Z,22.00
2022-11-19T00:31:33.737Z,22.00
2022-11-19T00:34:01.526Z,22.00
2022-11-19T00:36:29.281Z,22.00
2022-11-19T00:38:58.321Z,22.00
2022-11-19T00:41:26.045Z,22.00
2022-11-19T00:43:53.744Z,22.00
2022-11-19T00:46:22.809Z,22.00
2022-11-19T00:48:52.216Z,22.00
2022-11-19T00:51:21.957Z,22.00
2022-11-19T00:53:49.999Z,22.00
2022-11-19T00:56:20.958Z,22.00
2022-11-19T00:58:49.128Z,22.00
2022-11-19T01:01:18.422Z,22.00
2022-11-19T01:03:46.753Z,22.00
2022-11-19T01:06:19.137Z,22.00
2022-11-19T01:08:47.615Z,22.00
2022-11-19T01:11:17.197Z,22.00
2022-11-19T01:13:46.310Z,22.00
2022-11-19T01:16:16.576Z,22.00
2022-11-19T01:18:46.505Z,22.00
2022-11-19T01:21:14.518Z,22.00
2022-11-19T01:23:43.897Z,22.00
2022-11-19T01:26:12.361Z,22.00
2022-11-19T01:28:40.104Z,22.00
2022-11-19T01:31:10.416Z,22.00
2022-11-19T01:33:38.793Z,22.00
2022-11-19T01:36:08.718Z,22.00
2022-11-19T01:38:36.588Z,22.00
2022-11-19T01:41:04.905Z,22.00
2022-11-19T01:43:47.470Z,22.00
2022-11-19T01:46:18.184Z,22.00
2022-11-19T01:48:49.600Z,22.00
2022-11-19T01:51:20.988Z,22.00
2022-11-19T01:53:50.820Z,22.00
2022-11-19T01:56:20.812Z,22.00
2022-11-19T01:58:52.216Z,22.00
2022-11-19T02:01:21.601Z,22.00
2022-11-19T02:03:50.081Z,22.00
2022-11-19T02:06:18.134Z,22.00
2022-11-19T02:08:47.269Z,22.00
2022-11-19T02:11:37.339Z,22.00
2022-11-19T02:14:18.342Z,22.00
2022-11-19T02:16:58.113Z,22.00
2022-11-19T02:19:55.261Z,22.00
2022-11-19T02:22:44.632Z,22.00
2022-11-19T02:25:24.689Z,22.00
2022-11-19T02:28:25.474Z,22.00
2022-11-19T02:30:58.403Z,22.00
2022-11-19T02:33:30.985Z,22.00
2022-11-19T02:36:04.252Z,22.00
2022-11-19T02:38:38.960Z,22.00
2022-11-19T02:41:29.329Z,22.00
2022-11-19T02:44:21.764Z,22.00
2022-11-19T02:46:53.647Z,22.00
2022-11-19T02:49:25.055Z,22.00
2022-11-19T02:51:53.366Z,22.00
2022-11-19T02:54:21.169Z,22.00
2022-11-19T02:56:52.509Z,22.00
2022-11-19T02:59:44.902Z,22.00
2022-11-19T03:02:33.224Z,22.00
2022-11-19T03:05:01.619Z,22.00
2022-11-19T03:07:29.489Z,22.00
2022-11-19T03:10:00.174Z,22.00
2022-11-19T03:12:41.096Z,22.00
2022-11-19T03:15:55.432Z,22.00
2022-11-19T03:18:32.913Z,21.90
2022-11-19T03:21:07.535Z,22.00
2022-11-19T03:23:41.112Z,21.90
2022-11-19T03:26:19.536Z,22.00
2022-11-19T03:28:48.999Z,22.00
2022-11-19T03:31:18.956Z,22.00
2022-11-19T03:33:51.588Z,21.90
2022-11-19T03:36:24.936Z,22.00
2022-11-19T03:38:59.058Z,21.90
2022-11-19T03:41:28.844Z,22.00
2022-11-19T03:44:02.710Z,22.00
2022-11-19T03:46:31.964Z,22.00
2022-11-19T03:49:03.110Z,22.00
2022-11-19T03:51:38.931Z,21.90
2022-11-19T03:54:07.241Z,21.90
2022-11-19T03:56:38.403Z,21.90
2022-11-19T03:59:08.486Z,21.90
2022-11-19T04:01:36.737Z,21.90
2022-11-19T04:04:24.005Z,22.00
2022-11-19T04:06:51.841Z,21.90
2022-11-19T04:09:19.756Z,22.00
2022-11-19T04:14:14.398Z,22.00
2022-11-19T04:16:42.150Z,21.90
2022-11-19T04:19:11.303Z,22.00
2022-11-19T04:21:39.003Z,22.00
2022-11-19T04:24:07.583Z,22.00
2022-11-19T04:26:35.301Z,21.90
2022-11-19T04:29:03.184Z,22.00
2022-11-19T04:31:30.940Z,22.00
2022-11-19T04:33:58.711Z,22.00
2022-11-19T04:36:27.749Z,22.00
2022-11-19T04:38:55.531Z,22.00
2022-11-19T04:41:23.242Z,22.00
2022-11-19T04:43:50.980Z,22.00
2022-11-19T04:46:19.064Z,22.00
2022-11-19T04:48:46.804Z,22.00
2022-11-19T04:51:14.532Z,22.00
2022-11-19T04:53:43.609Z,22.00
2022-11-19T04:56:11.663Z,22.00
2022-11-19T04:58:39.472Z,22.00
2022-11-19T05:01:07.312Z,21.90
2022-11-19T05:03:35.231Z,21.90
2022-11-19T05:06:03.130Z,21.90
2022-11-19T05:08:30.980Z,22.00
2022-11-19T05:11:00.039Z,22.00
2022-11-19T05:13:27.754Z,21.90
2022-11-19T05:15:55.477Z,21.90
2022-11-19T05:18:24.423Z,21.90
2022-11-19T05:20:52.199Z,21.90
2022-11-19T05:23:20.462Z,21.90
2022-11-19T05:25:48.411Z,21.90
2022-11-19T05:28:17.439Z,21.90
2022-11-19T05:30:45.316Z,21.90
2022-11-19T05:33:13.031Z,21.90
2022-11-19T05:35:40.878Z,21.90
2022-11-19T05:38:08.618Z,21.90
2022-11-19T05:40:36.376Z,21.90
2022-11-19T05:43:07.818Z,21.90
2022-11-19T05:45:36.906Z,21.90
2022-11-19T05:48:05.032Z,21.90
2022-11-19T05:50:32.769Z,21.90
2022-11-19T05:53:05.003Z,21.90
2022-11-19T05:55:32.893Z,21.90
2022-11-19T05:58:00.605Z,21.90
2022-11-19T06:00:28.346Z,21.90
2022-11-19T06:02:57.469Z,21.90
2022-11-19T06:05:25.283Z,21.90
2022-11-19T06:07:53.025Z,21.90
2022-11-19T06:10:20.743Z,21.90
2022-11-19T06:12:48.460Z,21.90
2022-11-19T06:15:16.340Z,21.90
2022-11-19T06:17:44.041Z,21.90
2022-11-19T06:20:13.525Z,21.90
2022-11-19T06:22:41.240Z,21.90
2022-11-19T06:25:09.811Z,21.90
2022-11-19T06:27:37.543Z,21.90
2022-11-19T06:30:06.400Z,21.90
2022-11-19T06:32:34.517Z,21.90
2022-11-19T06:35:02.444Z,21.90
2022-11-19T06:37:31.541Z,21.90
2022-11-19T06:39:59.286Z,21.90
2022-11-19T06:42:39.624Z,21.90
2022-11-19T06:45:09.844Z,21.80
2022-11-19T06:47:38.728Z,21.90
2022-11-19T06:50:07.498Z,21.90
2022-11-19T06:52:36.699Z,21.80
2022-11-19T06:55:04.887Z,21.80
2022-11-19T06:57:32.675Z,21.90
2022-11-19T07:00:00.377Z,21.90
2022-11-19T07:02:28.257Z,21.90
2022-11-19T07:04:56.129Z,21.90
2022-11-19T07:07:24.041Z,21.90
2022-11-19T07:09:53.169Z,21.90
2022-11-19T07:12:20.936Z,21.90
2022-11-19T07:14:48.635Z,21.90
2022-11-19T07:17:16.362Z,21.90
2022-11-19T07:19:45.148Z,21.90
2022-11-19T07:22:12.931Z,21.90
2022-11-19T07:24:40.650Z,22.00
2022-11-19T07:27:09.749Z,21.90
2022-11-19T07:29:38.671Z,22.00
2022-11-19T07:32:06.532Z,22.00
2022-11-19T07:34:34.288Z,22.00
2022-11-19T07:37:02.106Z,22.00
2022-11-19T07:39:29.897Z,22.00
2022-11-19T07:42:15.324Z,22.00
2022-11-19T07:44:50.846Z,22.00
2022-11-19T07:47:21.855Z,22.00
2022-11-19T07:49:49.678Z,22.00
2022-11-19T07:52:17.443Z,22.00
2022-11-19T07:54:45.199Z,22.00
2022-11-19T07:57:12.940Z,22.00
2022-11-19T07:59:40.689Z,22.00
2022-11-19T08:02:11.861Z,22.00
2022-11-19T08:04:39.781Z,22.00
2022-11-19T08:07:08.596Z,22.00
2022-11-19T08:09:36.402Z,22.00
2022-11-19T08:12:04.335Z,22.00
2022-11-19T08:14:32.061Z,22.00
2022-11-19T08:17:17.335Z,21.90
2022-11-19T08:19:46.372Z,22.00
2022-11-19T08:22:14.366Z,21.90
2022-11-19T08:24:42.090Z,21.90
2022-11-19T08:27:09.803Z,21.90
2022-11-19T08:29:37.534Z,21.90
2022-11-19T08:32:05.468Z,21.90
2022-11-19T08:34:34.181Z,21.90
2022-11-19T08:37:03.368Z,21.90
2022-11-19T08:39:31.840Z,21.90
2022-11-19T08:42:17.301Z,22.00
2022-11-19T08:44:45.021Z,21.90
2022-11-19T08:47:12.890Z,21.90
2022-11-19T08:49:40.615Z,21.90
2022-11-19T08:52:09.777Z,21.90
2022-11-19T08:54:37.525Z,21.90
2022-11-19T08:57:05.401Z,21.90
2022-11-19T08:59:33.104Z,21.90
2022-11-19T09:02:00.808Z,21.90
2022-11-19T09:04:28.576Z,21.90
2022-11-19T09:06:56.352Z,21.90
2022-11-19T09:09:25.411Z,21.90
2022-11-19T09:11:55.307Z,21.90
2022-11-19T09:14:23.073Z,21.90
2022-11-19T09:16:50.822Z,21.90
2022-11-19T09:19:18.603Z,21.90
2022-11-19T09:21:46.294Z,21.90
2022-11-19T09:24:14.046Z,21.90
2022-11-19T09:26:43.127Z,21.90
2022-11-19T09:29:10.876Z,21.90
2022-11-19T09:31:38.593Z,21.90
2022-11-19T09:34:06.338Z,21.90
2022-11-19T09:36:34.081Z,21.90
2022-11-19T09:39:02.134Z,21.90
2022-11-19T09:41:48.221Z,21.90
2022-11-19T09:44:31.556Z,21.90
2022-11-19T09:47:10.504Z,21.90
2022-11-19T09:49:43.350Z,21.90
2022-11-19T09:52:14.850Z,21.90
2022-11-19T09:54:49.079Z,21.90
2022-11-19T09:57:25.008Z,21.90
2022-11-19T09:59:54.793Z,21.90
2022-11-19T10:02:23.764Z,21.90
2022-11-19T10:04:52.814Z,21.90
2022-11-19T10:07:31.944Z,21.90
2022-11-19T10:10:12.633Z,21.90
2022-11-19T10:13:11.499Z,21.90
2022-11-19T10:15:52.272Z,21.90
2022-11-19T10:18:28.757Z,21.90
2022-11-19T10:21:02.429Z,21.90
2022-11-19T10:23:43.582Z,21.90
2022-11-19T10:26:15.057Z,21.90
2022-11-19T10:28:49.957Z,21.90
2022-11-19T10:31:22.379Z,21.90
2022-11-19T10:33:54.451Z,21.90
2022-11-19T10:36:27.260Z,21.90
2022-11-19T10:39:00.869Z,21.90
2022-11-19T10:41:35.118Z,21.90
2022-11-19T10:44:36.501Z,21.90
2022-11-19T10:47:05.704Z,21.90
2022-11-19T10:49:39.038Z,21.90
2022-11-19T10:52:11.159Z,21.90
2022-11-19T10:54:40.298Z,21.90
2022-11-19T10:57:16.025Z,21.90
2022-11-19T10:59:46.117Z,21.90
2022-11-19T11:02:27.771Z,21.90
2022-11-19T11:05:12.188Z,21.90
2022-11-19T11:07:58.677Z,21.90
2022-11-19T11:10:33.741Z,21.90
2022-11-19T11:13:27.087Z,21.90
2022-11-19T11:15:56.173Z,21.90
2022-11-19T11:18:27.690Z,21.90
2022-11-19T11:20:57.270Z,21.90
2022-11-19T11:23:26.955Z,21.90
2022-11-19T11:26:00.954Z,21.90
2022-11-19T11:28:29.609Z,21.90
2022-11-19T11:31:00.419Z,21.90
2022-11-19T11:33:32.044Z,21.90
2022-11-19T11:36:02.515Z,21.90
2022-11-19T11:38:30.525Z,22.00
2022-11-19T11:44:04.074Z,21.90
2022-11-19T11:46:39.270Z,21.90
2022-11-19T11:49:12.729Z,22.00
2022-11-19T11:51:40.873Z,21.90
2022-11-19T11:54:18.277Z,21.90
2022-11-19T11:56:47.100Z,21.90
2022-11-19T11:59:21.858Z,21.90
2022-11-19T12:01:56.652Z,21.90
2022-11-19T12:04:25.263Z,22.00
2022-11-19T12:07:05.185Z,22.00
2022-11-19T12:09:41.623Z,21.90
2022-11-19T12:12:17.251Z,22.00
2022-11-19T12:14:55.237Z,22.00
2022-11-19T12:17:44.019Z,22.00
2022-11-19T12:20:22.453Z,22.00
2022-11-19T12:23:11.184Z,22.00
2022-11-19T12:25:42.430Z,22.10
2022-11-19T12:28:23.617Z,22.10
2022-11-19T12:31:12.724Z,22.10
2022-11-19T12:33:56.882Z,22.20
2022-11-19T12:36:31.608Z,22.20
2022-11-19T12:39:08.261Z,22.30
2022-11-19T12:42:01.035Z,22.40
2022-11-19T12:44:40.423Z,22.40
2022-11-19T12:47:23.611Z,22.50
2022-11-19T12:50:06.338Z,22.50
2022-11-19T12:52:57.108Z,22.50
2022-11-19T12:55:33.140Z,22.50
2022-11-19T12:58:10.566Z,22.40
2022-11-19T13:00:46.042Z,22.40
2022-11-19T13:03:17.322Z,22.40
2022-11-19T13:05:51.748Z,22.30
2022-11-19T13:08:24.788Z,22.30
2022-11-19T13:11:02.740Z,22.20
2022-11-19T13:13:31.297Z,22.20
2022-11-19T13:16:03.475Z,22.10
2022-11-19T13:18:34.875Z,22.00
2022-11-19T13:21:08.110Z,22.00
2022-11-19T13:23:41.428Z,21.90
2022-11-19T13:26:14.276Z,21.90
2022-11-19T13:28:47.720Z,21.90
2022-11-19T13:31:23.907Z,21.90
2022-11-19T13:33:57.214Z,21.90
2022-11-19T13:36:32.056Z,21.90
2022-11-19T13:39:05.391Z,21.80
2022-11-19T13:41:57.382Z,21.80
2022-11-19T13:44:40.932Z,21.80
2022-11-19T13:47:14.551Z,21.80
2022-11-19T13:49:45.576Z,21.80
2022-11-19T13:52:22.840Z,21.80
2022-11-19T13:54:50.723Z,21.80
2022-11-19T13:57:28.735Z,21.90
2022-11-19T14:00:02.693Z,21.80
2022-11-19T14:03:02.376Z,21.90
2022-11-19T14:05:57.298Z,21.90
2022-11-19T14:08:54.449Z,21.80
2022-11-19T14:11:32.723Z,21.80
2022-11-19T14:14:30.386Z,21.90
2022-11-19T14:17:23.564Z,21.80
2022-11-19T14:20:15.898Z,21.80
2022-11-19T14:23:11.882Z,21.80
2022-11-19T14:26:05.806Z,21.80
2022-11-19T14:28:45.344Z,21.80
2022-11-19T14:31:13.948Z,21.80
2022-11-19T14:33:58.384Z,21.80
2022-11-19T14:36:45.460Z,21.80
2022-11-19T14:39:23.651Z,21.80
2022-11-19T14:42:13.701Z,21.80
2022-11-19T14:44:42.176Z,21.80
2022-11-19T14:47:33.426Z,21.80
2022-11-19T14:50:03.962Z,21.80
2022-11-19T14:52:34.731Z,21.80
2022-11-19T14:55:06.812Z,21.80
2022-11-19T14:57:38.473Z,21.80
2022-11-19T15:00:08.709Z,21.80
2022-11-19T15:02:39.449Z,21.80
2022-11-19T15:05:19.759Z,21.80
2022-11-19T15:07:54.549Z,21.80
2022-11-19T15:10:46.164Z,21.80
2022-11-19T15:13:21.421Z,21.80
2022-11-19T15:15:52.271Z,21.80
2022-11-19T15:19:01.452Z,21.80
2022-11-19T15:22:12.002Z,21.80
2022-11-19T15:25:01.245Z,21.90
2022-11-19T15:27:42.581Z,21.90
2022-11-19T15:30:18.100Z,21.90
2022-11-19T15:33:10.376Z,21.90
2022-11-19T15:36:23.814Z,21.90
2022-11-19T15:38:57.483Z,21.90
2022-11-19T15:41:26.851Z,21.90
2022-11-19T15:43:57.167Z,21.90
2022-11-19T15:46:35.083Z,21.90
2022-11-19T15:49:11.164Z,21.90
2022-11-19T15:51:57.794Z,21.90
2022-11-19T15:54:29.544Z,21.90
2022-11-19T15:57:00.420Z,21.90
2022-11-19T15:59:30.100Z,21.90
2022-11-19T16:02:00.978Z,21.90
2022-11-19T16:04:36.601Z,21.90
2022-11-19T16:07:06.800Z,21.90
2022-11-19T16:09:35.660Z,22.00
2022-11-19T16:12:22.084Z,22.00
2022-11-19T16:15:09.064Z,22.00
2022-11-19T16:17:44.628Z,22.00
2022-11-19T16:20:21.751Z,22.00
2022-11-19T16:22:54.930Z,22.00
2022-11-19T16:25:32.709Z,22.10
2022-11-19T16:28:03.204Z,22.10
2022-11-19T16:30:39.056Z,22.10
2022-11-19T16:33:15.748Z,22.10
2022-11-19T16:35:47.156Z,22.20
2022-11-19T16:38:23.466Z,22.20
2022-11-19T16:41:09.295Z,22.30
2022-11-19T16:43:37.527Z,22.30
2022-11-19T16:46:07.234Z,22.30
2022-11-19T16:48:57.762Z,22.30
2022-11-19T16:51:32.524Z,22.30
2022-11-19T16:54:00.880Z,22.30
2022-11-19T16:56:38.692Z,22.30
2022-11-19T16:59:07.355Z,22.30
2022-11-19T17:01:35.778Z,22.30
2022-11-19T17:04:08.076Z,22.30
2022-11-19T17:06:38.243Z,22.30
2022-11-19T17:09:07.216Z,22.30
2022-11-19T17:12:13.656Z,22.30
2022-11-19T17:14:58.109Z,22.20
2022-11-19T17:17:39.922Z,22.20
2022-11-19T17:20:50.976Z,22.20
2022-11-19T17:23:20.257Z,22.20
2022-11-19T17:25:50.341Z,22.20
2022-11-19T17:28:21.270Z,22.20
2022-11-19T17:30:50.337Z,22.20
2022-11-19T17:33:20.652Z,22.20
2022-11-19T17:35:50.526Z,22.20
2022-11-19T17:38:20.764Z,22.20
2022-11-19T17:40:50.276Z,22.20
2022-11-19T17:43:38.612Z,22.10
2022-11-19T17:46:06.556Z,22.10
2022-11-19T17:48:35.718Z,22.10
2022-11-19T17:51:04.866Z,22.10
2022-11-19T17:53:32.587Z,22.10
2022-11-19T17:56:02.523Z,22.10
2022-11-19T17:58:30.420Z,22.10
2022-11-19T18:00:58.155Z,22.10
2022-11-19T18:03:25.888Z,22.10
2022-11-19T18:05:53.663Z,22.10
2022-11-19T18:08:22.742Z,22.10
2022-11-19T18:10:50.665Z,22.10
2022-11-19T18:13:35.711Z,22.10
2022-11-19T18:16:03.436Z,22.10
2022-11-19T18:18:31.217Z,22.10
2022-11-19T18:21:02.206Z,22.10
2022-11-19T18:23:31.560Z,22.10
2022-11-19T18:25:59.279Z,22.00
2022-11-19T18:28:27.008Z,22.00
2022-11-19T18:30:54.805Z,22.10
2022-11-19T18:33:22.529Z,22.00
2022-11-19T18:35:50.315Z,22.00
2022-11-19T18:38:18.065Z,22.10
2022-11-19T18:40:47.172Z,22.10
2022-11-19T18:43:34.124Z,22.00
2022-11-19T18:46:05.255Z,22.00
2022-11-19T18:48:33.023Z,22.00
2022-11-19T18:51:00.753Z,22.00
2022-11-19T18:53:28.479Z,22.00
2022-11-19T18:55:57.568Z,22.00
2022-11-19T18:58:25.353Z,22.00
2022-11-19T19:00:53.139Z,22.00
2022-11-19T19:03:20.924Z,22.00
2022-11-19T19:05:48.681Z,22.00
2022-11-19T19:08:16.416Z,22.00
2022-11-19T19:10:44.212Z,22.00
2022-11-19T19:13:12.312Z,22.00
2022-11-19T19:15:40.046Z,22.00
2022-11-19T19:18:08.029Z,22.00
2022-11-19T19:20:35.887Z,22.00
2022-11-19T19:23:03.701Z,22.00
2022-11-19T19:25:31.536Z,22.00
2022-11-19T19:27:59.287Z,22.00
2022-11-19T19:30:28.334Z,22.00
2022-11-19T19:32:56.077Z,22.00
2022-11-19T19:35:23.816Z,22.00
2022-11-19T19:37:51.740Z,22.00
2022-11-19T19:40:19.631Z,22.00
2022-11-19T19:42:47.538Z,22.00
2022-11-19T19:45:15.444Z,22.00
2022-11-19T19:47:44.541Z,22.00
2022-11-19T19:50:12.502Z,21.90
2022-11-19T19:52:40.317Z,21.90
2022-11-19T19:55:08.916Z,21.90
2022-11-19T19:57:36.686Z,21.90
2022-11-19T20:00:05.215Z,21.90
2022-11-19T20:02:40.029Z,21.90
2022-11-19T20:05:10.377Z,21.90
2022-11-19T20:07:38.175Z,21.90
2022-11-19T20:10:06.879Z,21.90
2022-11-19T20:12:48.599Z,21.90
2022-11-19T20:15:17.606Z,21.90
2022-11-19T20:17:45.402Z,21.90
2022-11-19T20:20:15.295Z,21.90
2022-11-19T20:22:43.015Z,21.90
2022-11-19T20:25:11.525Z,21.90
2022-11-19T20:27:39.284Z,21.90
2022-11-19T20:30:09.430Z,21.90
2022-11-19T20:32:37.318Z,21.90
2022-11-19T20:35:05.717Z,21.90
2022-11-19T20:37:34.795Z,21.90
2022-11-19T20:40:02.535Z,21.90
2022-11-19T20:42:47.727Z,21.90
2022-11-19T20:45:15.562Z,21.90
2022-11-19T20:47:43.610Z,21.90
2022-11-19T20:50:11.600Z,21.90
2022-11-19T20:52:40.677Z,21.90
2022-11-19T20:55:09.254Z,21.90
2022-11-19T20:57:37.036Z,21.90
2022-11-19T21:00:06.021Z,21.90
2022-11-19T21:02:33.804Z,21.90
2022-11-19T21:05:01.600Z,21.90
2022-11-19T21:07:30.176Z,21.90
2022-11-19T21:10:02.147Z,21.90
2022-11-19T21:12:34.119Z,21.90
2022-11-19T21:15:02.971Z,21.90
2022-11-19T21:17:31.054Z,21.90
2022-11-19T21:19:58.817Z,21.90
2022-11-19T21:22:26.508Z,21.80
2022-11-19T21:24:54.251Z,21.80
2022-11-19T21:27:23.316Z,21.80
2022-11-19T21:29:51.047Z,21.80
2022-11-19T21:32:18.796Z,21.80
2022-11-19T21:34:46.554Z,21.80
2022-11-19T21:37:14.303Z,21.80
2022-11-19T21:39:42.108Z,21.80
2022-11-19T21:42:09.828Z,21.80
2022-11-19T21:44:38.987Z,21.80
2022-11-19T21:47:06.800Z,21.80
2022-11-19T21:49:34.550Z,21.80
2022-11-19T21:52:02.300Z,21.80
2022-11-19T21:54:30.041Z,21.80
2022-11-19T21:56:57.965Z,21.80
2022-11-19T21:59:25.720Z,21.80
2022-11-19T22:01:55.104Z,21.80
2022-11-19T22:04:22.900Z,21.80
2022-11-19T22:06:50.659Z,21.70
2022-11-19T22:09:18.811Z,21.80
2022-11-19T22:11:46.782Z,21.80
2022-11-19T22:14:14.508Z,21.80
2022-11-19T22:16:42.217Z,21.80
2022-11-19T22:19:13.341Z,21.80
2022-11-19T22:21:41.393Z,21.80
2022-11-19T22:24:12.780Z,21.70
2022-11-19T22:26:40.546Z,21.70
2022-11-19T22:29:08.360Z,21.80
2022-11-19T22:31:36.195Z,21.70
2022-11-19T22:34:03.911Z,21.80
2022-11-19T22:36:34.035Z,21.70
2022-11-19T22:39:01.815Z,21.80
2022-11-19T22:41:29.559Z,21.80
2022-11-19T22:43:58.347Z,21.80
2022-11-19T22:46:26.254Z,21.80
2022-11-19T22:48:53.979Z,21.70
2022-11-19T22:51:24.643Z,21.70
2022-11-19T22:53:55.059Z,21.70
2022-11-19T22:56:25.404Z,21.80
2022-11-19T22:58:53.619Z,21.70
2022-11-19T23:01:23.920Z,21.80
2022-11-19T23:03:52.555Z,21.80
2022-11-19T23:06:21.001Z,21.70
2022-11-19T23:08:48.734Z,21.80
2022-11-19T23:11:41.075Z,21.80
2022-11-19T23:14:09.865Z,21.80
2022-11-19T23:16:37.911Z,21.80
2022-11-19T23:19:06.275Z,21.70
2022-11-19T23:21:34.312Z,21.70
2022-11-19T23:24:02.052Z,21.80
2022-11-19T23:26:33.298Z,21.80
2022-11-19T23:29:01.242Z,21.70
2022-11-19T23:31:30.179Z,21.80
2022-11-19T23:33:59.533Z,21.80
2022-11-19T23:36:29.609Z,21.80
2022-11-19T23:38:57.466Z,21.80
2022-11-19T23:41:25.614Z,21.80
2022-11-19T23:43:55.854Z,21.80
2022-11-19T23:46:25.585Z,21.80
2022-11-19T23:48:54.950Z,21.80
2022-11-19T23:51:24.276Z,21.80
2022-11-19T23:53:52.541Z,21.80
2022-11-19T23:56:21.688Z,21.80
2022-11-19T23:58:49.885Z,21.80
